createdAt,value
2018-12-29T00:02:24.792Z,101653.37
2018-12-29T00:04:56.185Z,101646.91
2018-12-29T00:07:26.971Z,101650.30
2018-12-29T00:09:58.361Z,101665.22
2018-12-29T00:12:29.211Z,101672.39
2018-12-29T00:15:00.592Z,101673.33
2018-12-29T00:17:31.679Z,101672.08
2018-12-29T00:20:02.873Z,101661.80
2018-12-29T00:25:55.916Z,101656.22
2018-12-29T00:32:25.250Z,101657.98
2018-12-29T00:34:56.796Z,101654.65
2018-12-29T00:37:27.889Z,101659.70
2018-12-29T00:39:59.427Z,101659.72
2018-12-29T00:42:30.214Z,101659.74
2018-12-29T00:45:02.686Z,101666.17
2018-12-29T00:47:35.478Z,101655.02
2018-12-29T00:50:06.666Z,101653.72
2018-12-29T00:52:38.520Z,101654.59
2018-12-29T00:55:09.878Z,101646.08
2018-12-29T00:57:40.969Z,101648.21
2018-12-29T01:00:12.011Z,101638.85
2018-12-29T01:02:43.519Z,101635.84
2018-12-29T01:05:14.824Z,101632.42
2018-12-29T01:07:46.196Z,101636.74
2018-12-29T01:10:26.297Z,101639.73
2018-12-29T01:12:57.129Z,101643.09
2018-12-29T01:15:28.256Z,101648.72
2018-12-29T01:17:59.299Z,101640.63
2018-12-29T01:20:30.455Z,101638.48
2018-12-29T01:23:01.497Z,101640.16
2018-12-29T01:25:32.703Z,101637.14
2018-12-29T01:28:29.103Z,101643.60
2018-12-29T01:31:19.341Z,101641.84
2018-12-29T01:37:22.826Z,101646.94
2018-12-29T01:39:53.828Z,101652.91
2018-12-29T01:42:24.673Z,101652.91
2018-12-29T01:44:56.940Z,101652.54
2018-12-29T01:47:28.012Z,101652.03
2018-12-29T01:49:59.265Z,101653.77
2018-12-29T01:52:30.352Z,101658.47
2018-12-29T01:55:01.536Z,101665.69
2018-12-29T01:57:44.480Z,101664.91
2018-12-29T02:00:15.561Z,101661.95
2018-12-29T02:06:37.849Z,101653.71
2018-12-29T02:09:28.859Z,101645.55
2018-12-29T02:15:38.948Z,101657.13
2018-12-29T02:18:48.308Z,101650.33
2018-12-29T02:21:59.568Z,101656.23
2018-12-29T02:24:30.980Z,101660.55
2018-12-29T02:27:02.132Z,101655.42
2018-12-29T02:29:33.784Z,101649.47
2018-12-29T02:32:05.025Z,101653.69
2018-12-29T02:38:11.318Z,101655.40
2018-12-29T02:40:42.921Z,101655.83
2018-12-29T02:43:13.783Z,101656.68
2018-12-29T02:52:07.151Z,101659.64
2018-12-29T02:54:38.544Z,101653.34
2018-12-29T02:57:09.330Z,101651.55
2018-12-29T03:06:32.706Z,101644.38
2018-12-29T03:09:26.862Z,101629.01
2018-12-29T03:11:57.923Z,101626.45
2018-12-29T03:14:29.056Z,101614.92
2018-12-29T03:17:00.176Z,101602.54
2018-12-29T03:19:31.583Z,101606.06
2018-12-29T03:22:02.694Z,101603.42
2018-12-29T03:24:34.204Z,101596.59
2018-12-29T03:27:05.571Z,101606.84
2018-12-29T03:29:36.644Z,101603.90
2018-12-29T03:32:08.077Z,101604.67
2018-12-29T03:34:39.065Z,101607.38
2018-12-29T03:37:10.195Z,101607.31
2018-12-29T03:39:41.189Z,101607.69
2018-12-29T03:42:12.192Z,101591.55
2018-12-29T03:44:43.439Z,101595.79
2018-12-29T03:47:14.302Z,101611.98
2018-12-29T03:49:45.329Z,101605.09
2018-12-29T03:52:16.399Z,101600.34
2018-12-29T03:54:47.745Z,101603.42
2018-12-29T03:57:19.339Z,101603.88
2018-12-29T03:59:50.597Z,101606.01
2018-12-29T04:02:21.935Z,101605.16
2018-12-29T04:04:52.986Z,101601.74
2018-12-29T04:07:24.145Z,101614.59
2018-12-29T04:09:55.806Z,101619.27
2018-12-29T04:12:28.982Z,101615.05
2018-12-29T04:15:00.004Z,101626.09
2018-12-29T04:17:31.133Z,101630.80
2018-12-29T04:20:02.156Z,101630.31
2018-12-29T04:22:32.938Z,101629.11
2018-12-29T04:25:04.417Z,101630.80
2018-12-29T04:27:35.724Z,101628.31
2018-12-29T04:30:07.097Z,101638.97
2018-12-29T04:32:38.387Z,101638.98
2018-12-29T04:35:09.383Z,101635.99
2018-12-29T04:37:40.485Z,101627.00
2018-12-29T04:40:11.506Z,101626.58
2018-12-29T04:42:42.259Z,101625.77
2018-12-29T04:45:13.291Z,101628.68
2018-12-29T04:47:44.590Z,101621.03
2018-12-29T04:50:15.673Z,101625.77
2018-12-29T04:52:46.939Z,101633.02
2018-12-29T04:55:18.020Z,101632.59
2018-12-29T04:57:49.381Z,101634.40
2018-12-29T05:00:20.456Z,101642.01
2018-12-29T05:02:51.838Z,101634.84
2018-12-29T05:05:22.831Z,101626.25
2018-12-29T05:07:54.196Z,101630.87
2018-12-29T05:10:24.971Z,101631.77
2018-12-29T05:12:56.288Z,101633.13
2018-12-29T05:15:27.347Z,101637.74
2018-12-29T05:17:58.478Z,101647.11
2018-12-29T05:20:29.766Z,101653.11
2018-12-29T05:23:00.756Z,101651.36
2018-12-29T05:25:32.044Z,101656.55
2018-12-29T05:28:03.320Z,101660.78
2018-12-29T05:30:34.104Z,101657.78
2018-12-29T05:33:05.145Z,101653.91
2018-12-29T05:35:36.203Z,101654.84
2018-12-29T05:38:07.033Z,101653.13
2018-12-29T05:40:38.516Z,101660.42
2018-12-29T05:43:09.711Z,101662.47
2018-12-29T05:45:40.710Z,101660.79
2018-12-29T05:48:11.785Z,101664.19
2018-12-29T05:50:42.721Z,101663.73
2018-12-29T05:53:14.385Z,101661.97
2018-12-29T05:55:45.692Z,101666.64
2018-12-29T05:58:16.587Z,101661.09
2018-12-29T06:00:48.680Z,101661.00
2018-12-29T06:03:23.080Z,101662.33
2018-12-29T06:05:54.605Z,101664.86
2018-12-29T06:08:25.720Z,101650.78
2018-12-29T06:10:56.520Z,101648.99
2018-12-29T06:13:27.523Z,101654.99
2018-12-29T06:15:59.064Z,101651.13
2018-12-29T06:18:30.771Z,101646.05
2018-12-29T06:21:01.914Z,101645.66
2018-12-29T06:23:32.960Z,101645.30
2018-12-29T06:26:04.207Z,101655.55
2018-12-29T06:28:35.710Z,101654.70
2018-12-29T06:31:06.793Z,101650.87
2018-12-29T06:33:38.125Z,101651.20
2018-12-29T06:36:09.029Z,101660.59
2018-12-29T06:38:40.120Z,101659.75
2018-12-29T06:41:10.885Z,101663.59
2018-12-29T06:43:41.975Z,101660.63
2018-12-29T06:46:13.085Z,101671.28
2018-12-29T06:48:44.521Z,101675.09
2018-12-29T06:51:15.566Z,101682.33
2018-12-29T06:53:46.346Z,101667.44
2018-12-29T06:56:17.680Z,101673.91
2018-12-29T06:58:49.207Z,101669.62
2018-12-29T07:01:20.842Z,101669.59
2018-12-29T07:03:51.961Z,101670.79
2018-12-29T07:06:23.268Z,101671.72
2018-12-29T07:08:55.282Z,101673.03
2018-12-29T07:11:26.298Z,101680.27
2018-12-29T07:13:57.363Z,101676.82
2018-12-29T07:16:28.179Z,101684.87
2018-12-29T07:18:59.077Z,101673.83
2018-12-29T07:21:30.124Z,101676.37
2018-12-29T07:24:01.420Z,101672.53
2018-12-29T07:26:32.508Z,101676.38
2018-12-29T07:29:04.205Z,101680.64
2018-12-29T07:31:34.992Z,101684.42
2018-12-29T07:34:06.539Z,101692.95
2018-12-29T07:36:38.078Z,101700.66
2018-12-29T07:39:09.175Z,101699.85
2018-12-29T07:41:40.722Z,101700.69
2018-12-29T07:44:11.973Z,101709.67
2018-12-29T07:46:49.440Z,101707.97
2018-12-29T07:49:16.111Z,101710.02
2018-12-29T07:51:46.901Z,101721.11
2018-12-29T07:54:18.006Z,101719.39
2018-12-29T07:56:49.248Z,101724.90
2018-12-29T07:59:20.273Z,101727.08
2018-12-29T08:01:51.642Z,101723.64
2018-12-29T08:04:22.413Z,101721.11
2018-12-29T08:06:53.434Z,101728.34
2018-12-29T08:09:24.987Z,101724.02
2018-12-29T08:11:56.375Z,101717.26
2018-12-29T08:14:27.416Z,101732.56
2018-12-29T08:16:58.701Z,101732.94
2018-12-29T08:19:29.703Z,101739.75
2018-12-29T08:22:01.299Z,101739.75
2018-12-29T08:24:32.384Z,101733.73
2018-12-29T08:27:03.447Z,101737.16
2018-12-29T08:29:34.600Z,101744.84
2018-12-29T08:32:05.801Z,101736.31
2018-12-29T08:34:36.645Z,101737.21
2018-12-29T08:37:08.265Z,101737.59
2018-12-29T08:39:39.782Z,101738.89
2018-12-29T08:42:11.048Z,101738.41
2018-12-29T08:44:42.047Z,101739.30
2018-12-29T08:47:13.061Z,101747.36
2018-12-29T08:49:44.139Z,101747.79
2018-12-29T08:52:15.419Z,101743.55
2018-12-29T08:54:46.558Z,101743.14
2018-12-29T08:57:17.580Z,101740.09
2018-12-29T08:59:48.562Z,101740.47
2018-12-29T09:02:19.600Z,101744.28
2018-12-29T09:04:50.692Z,101739.75
2018-12-29T09:07:22.544Z,101748.22
2018-12-29T09:09:54.171Z,101740.47
2018-12-29T09:12:24.931Z,101736.20
2018-12-29T09:14:56.188Z,101731.83
2018-12-29T09:17:27.020Z,101746.48
2018-12-29T09:19:58.296Z,101733.72
2018-12-29T09:22:29.319Z,101749.44
2018-12-29T09:25:00.393Z,101744.69
2018-12-29T09:27:31.552Z,101755.37
2018-12-29T09:30:02.684Z,101753.66
2018-12-29T09:32:34.086Z,101759.64
2018-12-29T09:35:05.628Z,101755.28
2018-12-29T09:37:36.892Z,101756.96
2018-12-29T09:40:08.035Z,101755.37
2018-12-29T09:42:39.256Z,101747.16
2018-12-29T09:45:10.256Z,101746.19
2018-12-29T09:47:41.027Z,101743.74
2018-12-29T09:50:12.103Z,101739.31
2018-12-29T09:52:43.299Z,101734.34
2018-12-29T09:55:14.852Z,101740.72
2018-12-29T09:57:46.239Z,101746.67
2018-12-29T10:00:17.330Z,101740.69
2018-12-29T10:02:48.330Z,101735.16
2018-12-29T10:05:19.641Z,101740.66
2018-12-29T10:07:50.707Z,101732.47
2018-12-29T10:10:21.597Z,101730.83
2018-12-29T10:12:52.602Z,101733.42
2018-12-29T10:15:23.693Z,101735.50
2018-12-29T10:17:54.685Z,101735.03
2018-12-29T10:20:25.541Z,101730.80
2018-12-29T10:22:56.306Z,101720.89
2018-12-29T10:25:27.150Z,101724.28
2018-12-29T10:27:58.481Z,101729.41
2018-12-29T10:30:29.492Z,101729.05
2018-12-29T10:33:00.332Z,101720.83
2018-12-29T10:35:31.612Z,101721.29
2018-12-29T10:38:02.773Z,101716.22
2018-12-29T10:40:34.048Z,101719.22
2018-12-29T10:43:05.312Z,101732.11
2018-12-29T10:45:36.758Z,101729.44
2018-12-29T10:48:08.441Z,101730.27
2018-12-29T10:50:40.084Z,101721.61
2018-12-29T10:53:11.104Z,101711.77
2018-12-29T10:55:42.105Z,101718.16
2018-12-29T10:58:13.098Z,101716.48
2018-12-29T11:00:44.103Z,101713.33
2018-12-29T11:03:15.660Z,101705.75
2018-12-29T11:05:46.735Z,101715.59
2018-12-29T11:08:18.276Z,101713.48
2018-12-29T11:10:49.168Z,101712.70
2018-12-29T11:13:20.450Z,101716.09
2018-12-29T11:15:51.739Z,101725.35
2018-12-29T11:18:22.945Z,101706.22
2018-12-29T11:20:53.756Z,101705.04
2018-12-29T11:23:24.746Z,101699.48
2018-12-29T11:25:55.784Z,101696.52
2018-12-29T11:28:26.869Z,101686.58
2018-12-29T11:30:58.182Z,101681.41
2018-12-29T11:33:29.425Z,101672.47
2018-12-29T11:36:00.436Z,101665.94
2018-12-29T11:38:31.677Z,101661.67
2018-12-29T11:41:02.704Z,101650.37
2018-12-29T11:43:33.952Z,101652.16
2018-12-29T11:46:04.869Z,101644.00
2018-12-29T11:48:35.914Z,101628.56
2018-12-29T11:51:06.751Z,101631.13
2018-12-29T11:53:38.088Z,101618.30
2018-12-29T11:56:09.097Z,101615.84
2018-12-29T11:58:40.120Z,101607.45
2018-12-29T12:01:11.395Z,101613.45
2018-12-29T12:03:42.617Z,101603.75
2018-12-29T12:06:13.980Z,101607.50
2018-12-29T12:08:45.499Z,101601.22
2018-12-29T12:11:16.868Z,101595.19
2018-12-29T12:13:48.653Z,101589.07
2018-12-29T12:16:19.696Z,101576.41
2018-12-29T12:18:50.527Z,101571.76
2018-12-29T12:21:21.736Z,101565.63
2018-12-29T12:23:53.005Z,101557.51
2018-12-29T12:26:24.365Z,101559.13
2018-12-29T12:28:55.431Z,101554.70
2018-12-29T12:31:26.800Z,101565.81
2018-12-29T12:33:58.075Z,101558.92
2018-12-29T12:36:29.525Z,101559.62
2018-12-29T12:39:00.812Z,101579.36
2018-12-29T12:41:33.870Z,101570.00
2018-12-29T12:44:05.099Z,101568.72
2018-12-29T12:46:37.705Z,101569.19
2018-12-29T12:49:09.185Z,101564.20
2018-12-29T12:51:40.563Z,101564.25
2018-12-29T12:54:12.376Z,101565.37
2018-12-29T12:56:43.238Z,101568.66
2018-12-29T12:59:14.436Z,101568.29
2018-12-29T13:01:46.893Z,101557.97
2018-12-29T13:04:18.511Z,101558.39
2018-12-29T13:06:49.620Z,101550.59
2018-12-29T13:09:20.646Z,101548.44
2018-12-29T13:11:51.692Z,101543.15
2018-12-29T13:14:22.788Z,101544.97
2018-12-29T13:16:54.051Z,101538.06
2018-12-29T13:19:28.685Z,101531.91
2018-12-29T13:21:58.093Z,101531.73
2018-12-29T13:24:29.221Z,101523.28
2018-12-29T13:27:00.328Z,101524.42
2018-12-29T13:30:30.756Z,101537.05
2018-12-29T13:33:01.704Z,101529.76
2018-12-29T13:38:24.762Z,101531.91
2018-12-29T13:40:55.980Z,101528.91
2018-12-29T13:43:27.347Z,101532.37
2018-12-29T13:45:58.995Z,101524.41
2018-12-29T13:48:29.805Z,101531.43
2018-12-29T13:51:01.085Z,101540.41
2018-12-29T13:53:31.933Z,101560.16
2018-12-29T13:56:02.740Z,101553.38
2018-12-29T13:58:34.011Z,101565.46
2018-12-29T14:01:05.749Z,101581.67
2018-12-29T14:03:36.824Z,101578.04
2018-12-29T14:06:07.839Z,101591.42
2018-12-29T14:08:39.222Z,101592.64
2018-12-29T14:11:10.205Z,101594.31
2018-12-29T14:13:41.609Z,101578.41
2018-12-29T14:16:13.241Z,101584.19
2018-12-29T14:18:44.278Z,101573.11
2018-12-29T14:21:15.399Z,101574.66
2018-12-29T14:23:46.972Z,101572.95
2018-12-29T14:26:18.036Z,101581.58
2018-12-29T14:28:49.049Z,101581.28
2018-12-29T14:31:20.532Z,101569.27
2018-12-29T14:33:51.532Z,101573.44
2018-12-29T14:36:22.313Z,101574.77
2018-12-29T14:38:53.650Z,101569.63
2018-12-29T14:41:24.980Z,101556.31
2018-12-29T14:43:56.538Z,101554.17
2018-12-29T14:46:27.365Z,101550.38
2018-12-29T14:48:59.977Z,101539.59
2018-12-29T14:51:31.319Z,101524.31
2018-12-29T14:54:02.405Z,101514.72
2018-12-29T14:56:52.831Z,101498.98
2018-12-29T14:59:50.248Z,101490.84
2018-12-29T15:02:35.525Z,101504.50
2018-12-29T15:05:20.605Z,101497.76
2018-12-29T15:07:51.635Z,101493.54
2018-12-29T15:10:22.998Z,101480.59
2018-12-29T15:12:54.617Z,101479.30
2018-12-29T15:15:26.231Z,101482.29
2018-12-29T15:17:57.495Z,101480.16
2018-12-29T15:20:29.088Z,101478.92
2018-12-29T15:23:00.781Z,101494.28
2018-12-29T15:25:31.809Z,101495.20
2018-12-29T15:28:03.005Z,101479.78
2018-12-29T15:31:14.230Z,101472.82
2018-12-29T15:34:12.076Z,101475.50
2018-12-29T15:40:23.797Z,101475.20
2018-12-29T15:42:56.812Z,101483.16
2018-12-29T15:45:38.329Z,101499.43
2018-12-29T15:48:09.375Z,101517.83
2018-12-29T15:50:40.497Z,101520.83
2018-12-29T15:53:11.609Z,101532.12
2018-12-29T15:55:42.888Z,101528.11
2018-12-29T15:58:14.438Z,101527.73
2018-12-29T16:00:45.808Z,101539.61
2018-12-29T16:03:17.151Z,101549.03
2018-12-29T16:05:48.881Z,101549.41
2018-12-29T16:08:21.651Z,101553.25
2018-12-29T16:10:54.377Z,101542.56
2018-12-29T16:13:25.819Z,101550.73
2018-12-29T16:15:56.937Z,101542.60
2018-12-29T16:18:38.836Z,101528.53
2018-12-29T16:21:09.644Z,101524.63
2018-12-29T16:24:00.173Z,101502.69
2018-12-29T16:26:33.083Z,101505.47
2018-12-29T16:29:04.247Z,101496.91
2018-12-29T16:31:35.870Z,101500.39
2018-12-29T16:34:07.412Z,101487.43
2018-12-29T16:37:02.418Z,101486.20
2018-12-29T16:42:44.921Z,101449.83
2018-12-29T16:45:17.340Z,101454.84
2018-12-29T16:47:50.088Z,101456.30
2018-12-29T16:50:40.379Z,101453.20
2018-12-29T16:53:29.069Z,101456.12
2018-12-29T16:55:56.359Z,101461.25
2018-12-29T16:58:27.467Z,101492.08
2018-12-29T17:01:37.250Z,101495.39
2018-12-29T17:08:21.077Z,101462.06
2018-12-29T17:11:18.335Z,101456.02
2018-12-29T17:14:16.096Z,101448.72
2018-12-29T17:17:13.864Z,101440.21
2018-12-29T17:20:11.113Z,101431.25
2018-12-29T17:23:09.096Z,101424.39
2018-12-29T17:26:09.420Z,101421.82
2018-12-29T17:28:40.210Z,101415.63
2018-12-29T17:31:11.260Z,101421.67
2018-12-29T17:33:42.098Z,101435.70
2018-12-29T17:36:13.827Z,101432.27
2018-12-29T17:38:44.595Z,101429.41
2018-12-29T17:41:15.617Z,101434.05
2018-12-29T17:43:46.652Z,101420.28
2018-12-29T17:46:17.674Z,101409.16
2018-12-29T17:48:48.443Z,101404.13
2018-12-29T17:51:38.648Z,101391.66
2018-12-29T17:54:11.589Z,101398.14
2018-12-29T17:56:42.584Z,101412.50
2018-12-29T17:59:24.472Z,101401.88
2018-12-29T18:02:21.972Z,101418.20
2018-12-29T18:05:12.041Z,101408.84
2018-12-29T18:07:43.113Z,101418.45
2018-12-29T18:10:14.154Z,101410.75
2018-12-29T18:12:45.391Z,101400.47
2018-12-29T18:15:16.448Z,101409.45
2018-12-29T18:17:47.656Z,101425.66
2018-12-29T18:20:18.439Z,101452.22
2018-12-29T18:22:49.411Z,101482.98
2018-12-29T18:25:20.764Z,101456.12
2018-12-29T18:27:51.693Z,101428.00
2018-12-29T18:30:23.000Z,101434.30
2018-12-29T18:32:54.393Z,101416.84
2018-12-29T18:35:25.848Z,101394.28
2018-12-29T18:37:56.926Z,101401.38
2018-12-29T18:40:27.986Z,101403.64
2018-12-29T18:42:58.743Z,101402.30
2018-12-29T18:45:31.060Z,101399.25
2018-12-29T18:48:02.291Z,101399.80
2018-12-29T18:50:33.229Z,101393.88
2018-12-29T18:53:04.327Z,101391.31
2018-12-29T18:55:35.319Z,101370.77
2018-12-29T18:58:06.165Z,101380.22
2018-12-29T19:00:37.108Z,101379.73
2018-12-29T19:03:07.883Z,101370.44
2018-12-29T19:05:38.881Z,101373.44
2018-12-29T19:08:10.025Z,101378.14
2018-12-29T19:10:41.305Z,101374.29
2018-12-29T19:13:12.371Z,101365.61
2018-12-29T19:15:43.800Z,101354.61
2018-12-29T19:18:15.069Z,101349.00
2018-12-29T19:20:46.600Z,101344.34
2018-12-29T19:23:17.644Z,101343.13
2018-12-29T19:25:48.841Z,101346.92
2018-12-29T19:28:19.778Z,101343.12
2018-12-29T19:30:51.226Z,101327.65
2018-12-29T19:33:22.421Z,101329.29
2018-12-29T19:35:53.504Z,101322.08
2018-12-29T19:38:24.565Z,101327.28
2018-12-29T19:40:55.561Z,101324.37
2018-12-29T19:43:27.106Z,101325.56
2018-12-29T19:45:58.115Z,101326.84
2018-12-29T19:48:29.546Z,101329.41
2018-12-29T19:51:00.820Z,101327.71
2018-12-29T19:53:32.045Z,101318.30
2018-12-29T19:56:02.814Z,101326.36
2018-12-29T19:58:33.961Z,101349.53
2018-12-29T20:01:04.827Z,101335.37
2018-12-29T20:03:37.106Z,101331.50
2018-12-29T20:06:11.232Z,101320.42
2018-12-29T20:08:40.651Z,101330.17
2018-12-29T20:11:11.859Z,101332.37
2018-12-29T20:13:42.648Z,101325.03
2018-12-29T20:16:13.473Z,101324.16
2018-12-29T20:18:44.487Z,101313.09
2018-12-29T20:21:15.741Z,101317.31
2018-12-29T20:23:46.757Z,101324.17
2018-12-29T20:26:17.552Z,101310.09
2018-12-29T20:28:48.838Z,101315.61
2018-12-29T20:31:19.649Z,101312.18
2018-12-29T20:33:50.557Z,101322.45
2018-12-29T20:36:21.670Z,101320.36
2018-12-29T20:38:52.634Z,101314.73
2018-12-29T20:41:23.955Z,101315.10
2018-12-29T20:43:54.968Z,101308.27
2018-12-29T20:46:25.751Z,101311.13
2018-12-29T20:48:56.748Z,101306.85
2018-12-29T20:54:17.801Z,101287.51
2018-12-29T20:56:48.575Z,101291.86
2018-12-29T20:59:19.596Z,101286.64
2018-12-29T21:08:14.757Z,101279.75
2018-12-29T21:10:45.776Z,101266.83
2018-12-29T21:13:16.803Z,101261.25
2018-12-29T21:15:48.778Z,101252.77
2018-12-29T21:18:19.827Z,101249.27
2018-12-29T21:20:50.853Z,101254.41
2018-12-29T21:23:22.383Z,101255.18
2018-12-29T21:25:53.431Z,101230.72
2018-12-29T21:28:24.753Z,101231.50
2018-12-29T21:30:56.095Z,101219.59
2018-12-29T21:33:27.073Z,101215.72
2018-12-29T21:35:58.169Z,101206.75
2018-12-29T21:38:29.271Z,101214.88
2018-12-29T21:41:00.430Z,101206.75
2018-12-29T21:43:31.447Z,101208.80
2018-12-29T21:46:02.214Z,101219.80
2018-12-29T21:48:54.000Z,101220.70
2018-12-29T21:51:25.051Z,101209.50
2018-12-29T21:53:56.054Z,101212.92
2018-12-29T21:56:27.041Z,101216.70
2018-12-29T21:58:57.840Z,101215.70
2018-12-29T22:01:28.617Z,101199.78
2018-12-29T22:03:59.617Z,101197.23
2018-12-29T22:06:30.409Z,101202.42
2018-12-29T22:09:01.531Z,101203.78
2018-12-29T22:11:33.812Z,101191.84
2018-12-29T22:14:04.798Z,101179.14
2018-12-29T22:16:35.562Z,101189.35
2018-12-29T22:19:07.043Z,101174.44
2018-12-29T22:21:37.796Z,101173.92
2018-12-29T22:24:09.121Z,101177.70
2018-12-29T22:26:40.114Z,101183.72
2018-12-29T22:29:11.113Z,101187.04
2018-12-29T22:31:42.143Z,101180.69
2018-12-29T22:34:12.944Z,101183.59
2018-12-29T22:36:43.929Z,101191.52
2018-12-29T22:39:14.930Z,101198.30
2018-12-29T22:41:46.340Z,101200.88
2018-12-29T22:44:17.588Z,101210.77
2018-12-29T22:46:48.915Z,101202.57
2018-12-29T22:49:19.906Z,101189.72
2018-12-29T22:51:50.953Z,101194.08
2018-12-29T22:54:22.011Z,101195.03
2018-12-29T22:56:52.903Z,101186.28
2018-12-29T22:59:23.916Z,101183.63
2018-12-29T23:01:54.676Z,101177.91
2018-12-29T23:04:25.447Z,101173.20
2018-12-29T23:06:56.281Z,101171.98
2018-12-29T23:09:27.294Z,101169.48
2018-12-29T23:11:58.291Z,101162.56
2018-12-29T23:14:29.124Z,101167.55
2018-12-29T23:17:00.700Z,101159.53
2018-12-29T23:19:31.508Z,101154.91
2018-12-29T23:22:02.740Z,101149.95
2018-12-29T23:24:33.736Z,101147.05
2018-12-29T23:27:04.576Z,101157.86
2018-12-29T23:29:35.352Z,101156.22
2018-12-29T23:32:06.176Z,101151.42
2018-12-29T23:34:37.220Z,101154.77
2018-12-29T23:37:08.234Z,101154.77
2018-12-29T23:39:39.227Z,101158.52
2018-12-29T23:42:10.253Z,101159.74
2018-12-29T23:44:41.663Z,101154.59
2018-12-29T23:47:12.650Z,101176.34
2018-12-29T23:49:43.424Z,101179.84
2018-12-29T23:52:14.639Z,101176.15
2018-12-29T23:54:45.753Z,101177.15
2018-12-29T23:57:16.838Z,101162.89
2018-12-29T23:59:47.720Z,101154.88
